sensor_id;sensor_type;location;lat;lon;timestamp;pressure;altitude;pressure_sealevel;temperature;humidity
32320;BME280;19080;51.750;5.888;2022-12-07T00:01:41;101597.84;;;4.41;100.00
32320;BME280;19080;51.750;5.888;2022-12-07T00:04:14;101592.75;;;4.28;100.00
32320;BME280;19080;51.750;5.888;2022-12-07T00:06:43;101594.91;;;4.18;100.00
32320;BME280;19080;51.750;5.888;2022-12-07T00:09:13;101469.34;;;3.45;100.00
32320;BME280;19080;51.750;5.888;2022-12-07T00:11:40;101549.03;;;3.79;100.00
32320;BME280;19080;51.750;5.888;2022-12-07T00:14:10;101479.09;;;3.31;100.00
32320;BME280;19080;51.750;5.888;2022-12-07T00:16:37;101543.38;;;3.55;100.00
32320;BME280;19080;51.750;5.888;2022-12-07T00:19:04;101531.34;;;3.43;100.00
32320;BME280;19080;51.750;5.888;2022-12-07T00:21:33;101542.94;;;3.48;100.00
32320;BME280;19080;51.750;5.888;2022-12-07T00:24:05;101567.72;;;3.53;100.00
32320;BME280;19080;51.750;5.888;2022-12-07T00:26:37;101503.84;;;3.20;100.00
32320;BME280;19080;51.750;5.888;2022-12-07T00:29:25;101585.78;;;3.63;100.00
32320;BME280;19080;51.750;5.888;2022-12-07T00:31:51;101543.94;;;3.34;100.00
32320;BME280;19080;51.750;5.888;2022-12-07T00:34:20;101585.94;;;3.50;100.00
32320;BME280;19080;51.750;5.888;2022-12-07T00:36:48;101489.84;;;2.88;100.00
32320;BME280;19080;51.750;5.888;2022-12-07T00:39:15;101561.88;;;3.26;100.00
32320;BME280;19080;51.750;5.888;2022-12-07T00:41:41;101561.88;;;3.26;100.00
32320;BME280;19080;51.750;5.888;2022-12-07T00:44:08;101558.19;;;3.22;100.00
32320;BME280;19080;51.750;5.888;2022-12-07T00:46:35;101571.34;;;3.39;100.00
32320;BME280;19080;51.750;5.888;2022-12-07T00:49:01;101581.03;;;3.40;100.00
32320;BME280;19080;51.750;5.888;2022-12-07T00:51:28;101545.41;;;3.29;100.00
32320;BME280;19080;51.750;5.888;2022-12-07T00:53:55;101554.28;;;3.31;100.00
32320;BME280;19080;51.750;5.888;2022-12-07T00:56:24;101495.81;;;2.86;100.00
32320;BME280;19080;51.750;5.888;2022-12-07T00:58:59;101559.69;;;3.03;100.00
32320;BME280;19080;51.750;5.888;2022-12-07T01:01:28;101473.03;;;2.39;100.00
32320;BME280;19080;51.750;5.888;2022-12-07T01:03:55;101469.41;;;2.37;100.00
32320;BME280;19080;51.750;5.888;2022-12-07T01:06:23;101460.56;;;2.20;100.00
32320;BME280;19080;51.750;5.888;2022-12-07T01:08:50;101564.78;;;2.70;100.00
32320;BME280;19080;51.750;5.888;2022-12-07T01:11:20;101531.56;;;2.40;100.00
32320;BME280;19080;51.750;5.888;2022-12-07T01:13:46;101535.44;;;2.32;100.00
32320;BME280;19080;51.750;5.888;2022-12-07T01:16:15;101440.72;;;1.65;100.00
32320;BME280;19080;51.750;5.888;2022-12-07T01:18:45;101562.72;;;2.20;100.00
32320;BME280;19080;51.750;5.888;2022-12-07T01:21:21;101576.63;;;2.19;100.00
32320;BME280;19080;51.750;5.888;2022-12-07T01:23:49;101571.34;;;2.05;100.00
32320;BME280;19080;51.750;5.888;2022-12-07T01:26:18;101489.16;;;1.58;100.00
32320;BME280;19080;51.750;5.888;2022-12-07T01:28:46;101512.38;;;1.67;100.00
32320;BME280;19080;51.750;5.888;2022-12-07T01:31:17;101463.03;;;1.30;100.00
32320;BME280;19080;51.750;5.888;2022-12-07T01:33:48;101569.13;;;1.83;100.00
32320;BME280;19080;51.750;5.888;2022-12-07T01:36:21;101482.75;;;1.25;100.00
32320;BME280;19080;51.750;5.888;2022-12-07T01:38:49;101583.56;;;1.76;100.00
32320;BME280;19080;51.750;5.888;2022-12-07T01:41:20;101567.41;;;1.69;100.00
32320;BME280;19080;51.750;5.888;2022-12-07T01:44:09;101579.22;;;1.62;100.00
32320;BME280;19080;51.750;5.888;2022-12-07T01:46:37;101543.06;;;1.42;100.00
32320;BME280;19080;51.750;5.888;2022-12-07T01:49:06;101560.94;;;1.49;100.00
32320;BME280;19080;51.750;5.888;2022-12-07T01:51:34;101551.50;;;1.38;100.00
32320;BME280;19080;51.750;5.888;2022-12-07T01:54:03;101555.03;;;1.38;100.00
32320;BME280;19080;51.750;5.888;2022-12-07T01:56:30;101531.03;;;1.17;100.00
32320;BME280;19080;51.750;5.888;2022-12-07T01:59:00;101569.53;;;1.33;100.00
32320;BME280;19080;51.750;5.888;2022-12-07T02:01:26;101540.97;;;1.23;100.00
32320;BME280;19080;51.750;5.888;2022-12-07T02:03:54;101533.56;;;1.16;100.00
32320;BME280;19080;51.750;5.888;2022-12-07T02:06:24;101566.03;;;1.19;100.00
32320;BME280;19080;51.750;5.888;2022-12-07T02:08:52;101557.19;;;1.17;100.00
32320;BME280;19080;51.750;5.888;2022-12-07T02:11:21;101550.16;;;1.16;100.00
32320;BME280;19080;51.750;5.888;2022-12-07T02:13:48;101548.34;;;1.15;100.00
32320;BME280;19080;51.750;5.888;2022-12-07T02:19:00;101568.75;;;1.21;100.00
32320;BME280;19080;51.750;5.888;2022-12-07T02:21:48;101572.88;;;1.17;100.00
32320;BME280;19080;51.750;5.888;2022-12-07T02:27:27;101561.44;;;1.02;100.00
32320;BME280;19080;51.750;5.888;2022-12-07T02:35:04;101522.66;;;0.69;100.00
32320;BME280;19080;51.750;5.888;2022-12-07T02:40:10;101540.72;;;0.79;100.00
32320;BME280;19080;51.750;5.888;2022-12-07T02:42:43;101570.47;;;0.94;100.00
32320;BME280;19080;51.750;5.888;2022-12-07T02:45:14;101546.25;;;0.83;100.00
32320;BME280;19080;51.750;5.888;2022-12-07T02:47:44;101533.50;;;0.75;100.00
32320;BME280;19080;51.750;5.888;2022-12-07T02:50:13;101574.28;;;0.99;100.00
32320;BME280;19080;51.750;5.888;2022-12-07T02:52:41;101544.75;;;0.87;100.00
32320;BME280;19080;51.750;5.888;2022-12-07T02:55:08;101533.19;;;0.83;100.00
32320;BME280;19080;51.750;5.888;2022-12-07T03:00:20;101485.16;;;0.81;100.00
32320;BME280;19080;51.750;5.888;2022-12-07T03:02:53;101573.81;;;1.46;100.00
32320;BME280;19080;51.750;5.888;2022-12-07T03:08:26;101571.59;;;1.52;100.00
32320;BME280;19080;51.750;5.888;2022-12-07T03:10:58;101547.50;;;1.29;100.00
32320;BME280;19080;51.750;5.888;2022-12-07T03:13:31;101556.16;;;1.28;100.00
32320;BME280;19080;51.750;5.888;2022-12-07T03:16:15;101570.81;;;1.40;100.00
32320;BME280;19080;51.750;5.888;2022-12-07T03:18:51;101486.66;;;0.91;100.00
32320;BME280;19080;51.750;5.888;2022-12-07T03:21:26;101547.22;;;1.25;100.00
32320;BME280;19080;51.750;5.888;2022-12-07T03:23:55;101546.91;;;1.20;100.00
32320;BME280;19080;51.750;5.888;2022-12-07T03:26:30;101529.47;;;0.93;100.00
32320;BME280;19080;51.750;5.888;2022-12-07T03:29:00;101547.16;;;0.97;100.00
32320;BME280;19080;51.750;5.888;2022-12-07T03:31:35;101539.91;;;0.93;100.00
32320;BME280;19080;51.750;5.888;2022-12-07T03:34:23;101571.56;;;1.11;100.00
32320;BME280;19080;51.750;5.888;2022-12-07T03:37:00;101568.94;;;1.24;100.00
32320;BME280;19080;51.750;5.888;2022-12-07T03:39:56;101563.47;;;1.47;100.00
32320;BME280;19080;51.750;5.888;2022-12-07T03:42:24;101540.97;;;1.64;100.00
32320;BME280;19080;51.750;5.888;2022-12-07T03:44:52;101532.84;;;1.74;100.00
32320;BME280;19080;51.750;5.888;2022-12-07T03:47:26;101506.13;;;1.65;100.00
32320;BME280;19080;51.750;5.888;2022-12-07T03:50:07;101540.66;;;2.02;100.00
32320;BME280;19080;51.750;5.888;2022-12-07T03:52:45;101551.69;;;2.26;100.00
32320;BME280;19080;51.750;5.888;2022-12-07T03:55:20;101551.06;;;2.45;100.00
32320;BME280;19080;51.750;5.888;2022-12-07T03:57:51;101532.19;;;2.50;100.00
32320;BME280;19080;51.750;5.888;2022-12-07T04:00:19;101444.06;;;2.07;100.00
32320;BME280;19080;51.750;5.888;2022-12-07T04:02:51;101544.44;;;2.81;100.00
32320;BME280;19080;51.750;5.888;2022-12-07T04:05:18;101454.13;;;2.45;100.00
32320;BME280;19080;51.750;5.888;2022-12-07T04:07:45;101515.66;;;2.97;100.00
32320;BME280;19080;51.750;5.888;2022-12-07T04:10:12;101444.78;;;2.65;100.00
32320;BME280;19080;51.750;5.888;2022-12-07T04:12:39;101506.41;;;3.04;100.00
32320;BME280;19080;51.750;5.888;2022-12-07T04:15:07;101512.91;;;3.10;100.00
32320;BME280;19080;51.750;5.888;2022-12-07T04:17:34;101523.00;;;3.19;100.00
32320;BME280;19080;51.750;5.888;2022-12-07T04:20:01;101522.75;;;3.14;100.00
32320;BME280;19080;51.750;5.888;2022-12-07T04:22:28;101540.56;;;3.20;100.00
32320;BME280;19080;51.750;5.888;2022-12-07T04:24:55;101550.31;;;3.22;100.00
32320;BME280;19080;51.750;5.888;2022-12-07T04:27:22;101536.69;;;3.13;100.00
32320;BME280;19080;51.750;5.888;2022-12-07T04:29:49;101529.38;;;3.08;100.00
32320;BME280;19080;51.750;5.888;2022-12-07T04:32:16;101550.16;;;3.19;100.00
32320;BME280;19080;51.750;5.888;2022-12-07T04:34:42;101503.72;;;3.02;100.00
32320;BME280;19080;51.750;5.888;2022-12-07T04:37:09;101502.63;;;2.99;100.00
32320;BME280;19080;51.750;5.888;2022-12-07T04:39:35;101514.38;;;3.05;100.00
32320;BME280;19080;51.750;5.888;2022-12-07T04:42:02;101424.47;;;2.60;100.00
32320;BME280;19080;51.750;5.888;2022-12-07T04:44:29;101531.31;;;3.26;100.00
32320;BME280;19080;51.750;5.888;2022-12-07T04:46:56;101515.31;;;3.22;100.00
32320;BME280;19080;51.750;5.888;2022-12-07T04:49:24;101529.84;;;3.32;100.00
32320;BME280;19080;51.750;5.888;2022-12-07T04:51:51;101510.38;;;3.12;100.00
32320;BME280;19080;51.750;5.888;2022-12-07T04:54:18;101440.78;;;2.71;100.00
32320;BME280;19080;51.750;5.888;2022-12-07T04:56:44;101535.34;;;3.05;100.00
32320;BME280;19080;51.750;5.888;2022-12-07T04:59:12;101525.53;;;2.86;100.00
32320;BME280;19080;51.750;5.888;2022-12-07T05:01:39;101439.53;;;2.34;100.00
32320;BME280;19080;51.750;5.888;2022-12-07T05:04:06;101509.03;;;2.73;100.00
32320;BME280;19080;51.750;5.888;2022-12-07T05:06:34;101519.22;;;2.83;100.00
32320;BME280;19080;51.750;5.888;2022-12-07T05:09:02;101438.78;;;2.36;100.00
32320;BME280;19080;51.750;5.888;2022-12-07T05:11:29;101512.63;;;2.75;100.00
32320;BME280;19080;51.750;5.888;2022-12-07T05:14:11;101515.00;;;2.70;100.00
32320;BME280;19080;51.750;5.888;2022-12-07T05:16:39;101528.47;;;2.76;100.00
32320;BME280;19080;51.750;5.888;2022-12-07T05:19:06;101510.69;;;2.56;100.00
32320;BME280;19080;51.750;5.888;2022-12-07T05:21:34;101498.59;;;2.43;100.00
32320;BME280;19080;51.750;5.888;2022-12-07T05:24:01;101455.69;;;2.12;100.00
32320;BME280;19080;51.750;5.888;2022-12-07T05:26:28;101432.69;;;2.06;100.00
32320;BME280;19080;51.750;5.888;2022-12-07T05:28:56;101500.22;;;2.41;100.00
32320;BME280;19080;51.750;5.888;2022-12-07T05:31:24;101522.88;;;2.55;100.00
32320;BME280;19080;51.750;5.888;2022-12-07T05:33:51;101519.63;;;2.59;100.00
32320;BME280;19080;51.750;5.888;2022-12-07T05:36:18;101513.75;;;2.64;100.00
32320;BME280;19080;51.750;5.888;2022-12-07T05:38:44;101530.34;;;2.79;100.00
32320;BME280;19080;51.750;5.888;2022-12-07T05:41:14;101516.53;;;2.67;100.00
32320;BME280;19080;51.750;5.888;2022-12-07T05:44:00;101421.31;;;2.06;100.00
32320;BME280;19080;51.750;5.888;2022-12-07T05:46:27;101525.13;;;2.64;100.00
32320;BME280;19080;51.750;5.888;2022-12-07T05:48:54;101502.56;;;2.51;100.00
32320;BME280;19080;51.750;5.888;2022-12-07T05:51:21;101508.53;;;2.49;100.00
32320;BME280;19080;51.750;5.888;2022-12-07T05:53:47;101518.66;;;2.43;100.00
32320;BME280;19080;51.750;5.888;2022-12-07T05:56:14;101517.19;;;2.33;100.00
32320;BME280;19080;51.750;5.888;2022-12-07T05:58:41;101504.91;;;2.17;100.00
32320;BME280;19080;51.750;5.888;2022-12-07T06:01:26;101508.16;;;2.13;100.00
32320;BME280;19080;51.750;5.888;2022-12-07T06:03:53;101475.72;;;1.82;100.00
32320;BME280;19080;51.750;5.888;2022-12-07T06:06:19;101406.84;;;1.39;100.00
32320;BME280;19080;51.750;5.888;2022-12-07T06:08:46;101520.25;;;1.96;100.00
32320;BME280;19080;51.750;5.888;2022-12-07T06:11:13;101518.53;;;1.97;100.00
32320;BME280;19080;51.750;5.888;2022-12-07T06:13:58;101503.81;;;1.99;100.00
32320;BME280;19080;51.750;5.888;2022-12-07T06:16:25;101412.03;;;1.52;100.00
32320;BME280;19080;51.750;5.888;2022-12-07T06:18:51;101494.44;;;2.03;100.00
32320;BME280;19080;51.750;5.888;2022-12-07T06:21:18;101507.63;;;2.19;100.00
32320;BME280;19080;51.750;5.888;2022-12-07T06:23:44;101511.06;;;2.33;100.00
32320;BME280;19080;51.750;5.888;2022-12-07T06:26:11;101419.69;;;1.78;100.00
32320;BME280;19080;51.750;5.888;2022-12-07T06:28:38;101514.84;;;2.23;100.00
32320;BME280;19080;51.750;5.888;2022-12-07T06:31:07;101429.19;;;1.61;100.00
32320;BME280;19080;51.750;5.888;2022-12-07T06:33:40;101490.63;;;1.83;100.00
32320;BME280;19080;51.750;5.888;2022-12-07T06:36:07;101487.44;;;1.74;100.00
32320;BME280;19080;51.750;5.888;2022-12-07T06:38:34;101526.16;;;1.79;100.00
32320;BME280;19080;51.750;5.888;2022-12-07T06:41:01;101522.84;;;1.67;100.00
32320;BME280;19080;51.750;5.888;2022-12-07T06:43:27;101517.66;;;1.54;100.00
32320;BME280;19080;51.750;5.888;2022-12-07T06:45:54;101527.03;;;1.50;100.00
32320;BME280;19080;51.750;5.888;2022-12-07T06:48:21;101512.66;;;1.44;100.00
32320;BME280;19080;51.750;5.888;2022-12-07T06:50:48;101504.09;;;1.46;100.00
32320;BME280;19080;51.750;5.888;2022-12-07T06:53:20;101537.25;;;1.75;100.00
32320;BME280;19080;51.750;5.888;2022-12-07T06:55:47;101496.84;;;1.70;100.00
32320;BME280;19080;51.750;5.888;2022-12-07T06:58:15;101523.69;;;1.95;100.00
32320;BME280;19080;51.750;5.888;2022-12-07T07:00:43;101525.28;;;1.93;100.00
32320;BME280;19080;51.750;5.888;2022-12-07T07:03:09;101526.56;;;2.00;100.00
32320;BME280;19080;51.750;5.888;2022-12-07T07:05:36;101510.31;;;2.06;100.00
32320;BME280;19080;51.750;5.888;2022-12-07T07:08:03;101528.47;;;2.17;100.00
32320;BME280;19080;51.750;5.888;2022-12-07T07:10:47;101504.72;;;2.00;100.00
32320;BME280;19080;51.750;5.888;2022-12-07T07:13:14;101522.25;;;2.01;100.00
32320;BME280;19080;51.750;5.888;2022-12-07T07:15:41;101510.66;;;1.82;100.00
32320;BME280;19080;51.750;5.888;2022-12-07T07:18:07;101513.38;;;1.84;100.00
32320;BME280;19080;51.750;5.888;2022-12-07T07:20:34;101534.16;;;1.95;100.00
32320;BME280;19080;51.750;5.888;2022-12-07T07:23:01;101534.97;;;1.94;100.00
32320;BME280;19080;51.750;5.888;2022-12-07T07:25:27;101523.03;;;1.85;100.00
32320;BME280;19080;51.750;5.888;2022-12-07T07:27:54;101531.78;;;1.85;100.00
32320;BME280;19080;51.750;5.888;2022-12-07T07:30:20;101533.59;;;1.86;100.00
32320;BME280;19080;51.750;5.888;2022-12-07T07:32:47;101541.91;;;1.94;100.00
32320;BME280;19080;51.750;5.888;2022-12-07T07:35:14;101548.41;;;2.01;100.00
32320;BME280;19080;51.750;5.888;2022-12-07T07:37:40;101545.53;;;2.11;100.00
32320;BME280;19080;51.750;5.888;2022-12-07T07:40:08;101535.88;;;2.10;100.00
32320;BME280;19080;51.750;5.888;2022-12-07T07:42:35;101434.66;;;1.51;100.00
32320;BME280;19080;51.750;5.888;2022-12-07T07:45:02;101506.78;;;1.90;100.00
32320;BME280;19080;51.750;5.888;2022-12-07T07:47:29;101515.81;;;1.95;100.00
32320;BME280;19080;51.750;5.888;2022-12-07T07:49:56;101524.66;;;1.98;100.00
32320;BME280;19080;51.750;5.888;2022-12-07T07:52:23;101528.38;;;2.01;100.00
32320;BME280;19080;51.750;5.888;2022-12-07T07:54:50;101517.72;;;2.13;100.00
32320;BME280;19080;51.750;5.888;2022-12-07T07:57:17;101531.91;;;2.31;100.00
32320;BME280;19080;51.750;5.888;2022-12-07T07:59:44;101442.59;;;1.97;100.00
32320;BME280;19080;51.750;5.888;2022-12-07T08:02:15;101444.69;;;2.17;100.00
32320;BME280;19080;51.750;5.888;2022-12-07T08:04:42;101544.34;;;2.94;100.00
32320;BME280;19080;51.750;5.888;2022-12-07T08:07:09;101528.31;;;3.04;100.00
32320;BME280;19080;51.750;5.888;2022-12-07T08:09:36;101514.03;;;2.99;100.00
32320;BME280;19080;51.750;5.888;2022-12-07T08:12:02;101463.47;;;2.71;100.00
32320;BME280;19080;51.750;5.888;2022-12-07T08:14:29;101541.28;;;3.17;100.00
32320;BME280;19080;51.750;5.888;2022-12-07T08:16:56;101520.09;;;2.98;100.00
32320;BME280;19080;51.750;5.888;2022-12-07T08:19:22;101528.88;;;2.99;100.00
32320;BME280;19080;51.750;5.888;2022-12-07T08:21:49;101540.09;;;2.96;100.00
32320;BME280;19080;51.750;5.888;2022-12-07T08:24:16;101536.28;;;2.91;100.00
32320;BME280;19080;51.750;5.888;2022-12-07T08:26:43;101541.38;;;2.88;100.00
32320;BME280;19080;51.750;5.888;2022-12-07T08:29:09;101537.56;;;2.83;100.00
32320;BME280;19080;51.750;5.888;2022-12-07T08:31:36;101523.50;;;2.66;100.00
32320;BME280;19080;51.750;5.888;2022-12-07T08:34:02;101547.88;;;2.80;100.00
32320;BME280;19080;51.750;5.888;2022-12-07T08:36:29;101521.22;;;2.72;100.00
32320;BME280;19080;51.750;5.888;2022-12-07T08:38:56;101529.38;;;3.08;100.00
32320;BME280;19080;51.750;5.888;2022-12-07T08:41:42;101545.28;;;3.42;100.00
32320;BME280;19080;51.750;5.888;2022-12-07T08:44:09;101540.91;;;3.58;100.00
32320;BME280;19080;51.750;5.888;2022-12-07T08:46:38;101549.19;;;3.66;100.00
32320;BME280;19080;51.750;5.888;2022-12-07T08:49:13;101556.66;;;3.75;100.00
32320;BME280;19080;51.750;5.888;2022-12-07T08:51:40;101559.22;;;3.73;100.00
32320;BME280;19080;51.750;5.888;2022-12-07T08:54:10;101562.00;;;3.76;100.00
32320;BME280;19080;51.750;5.888;2022-12-07T08:56:37;101557.91;;;3.81;100.00
32320;BME280;19080;51.750;5.888;2022-12-07T08:59:05;101557.97;;;3.99;100.00
32320;BME280;19080;51.750;5.888;2022-12-07T09:01:32;101559.50;;;4.28;100.00
32320;BME280;19080;51.750;5.888;2022-12-07T09:03:59;101561.97;;;4.59;100.00
32320;BME280;19080;51.750;5.888;2022-12-07T09:06:26;101526.91;;;4.94;100.00
32320;BME280;19080;51.750;5.888;2022-12-07T09:08:56;101534.06;;;5.53;100.00
32320;BME280;19080;51.750;5.888;2022-12-07T09:11:24;101507.06;;;6.15;100.00
32320;BME280;19080;51.750;5.888;2022-12-07T09:13:54;101543.75;;;6.71;100.00
32320;BME280;19080;51.750;5.888;2022-12-07T09:16:21;101557.72;;;6.69;100.00
32320;BME280;19080;51.750;5.888;2022-12-07T09:18:48;101553.28;;;6.68;100.00
32320;BME280;19080;51.750;5.888;2022-12-07T09:21:15;101540.16;;;6.48;100.00
32320;BME280;19080;51.750;5.888;2022-12-07T09:23:42;101524.97;;;6.64;100.00
32320;BME280;19080;51.750;5.888;2022-12-07T09:26:09;101538.00;;;7.25;100.00
32320;BME280;19080;51.750;5.888;2022-12-07T09:28:37;101527.91;;;7.37;100.00
32320;BME280;19080;51.750;5.888;2022-12-07T09:31:04;101548.56;;;7.25;100.00
32320;BME280;19080;51.750;5.888;2022-12-07T09:33:57;101564.03;;;7.15;100.00
32320;BME280;19080;51.750;5.888;2022-12-07T09:36:24;101545.31;;;7.09;100.00
32320;BME280;19080;51.750;5.888;2022-12-07T09:38:51;101546.88;;;7.27;100.00
32320;BME280;19080;51.750;5.888;2022-12-07T09:41:18;101478.59;;;7.13;100.00
32320;BME280;19080;51.750;5.888;2022-12-07T09:43:45;101551.84;;;8.10;100.00
32320;BME280;19080;51.750;5.888;2022-12-07T09:46:15;101551.41;;;8.72;100.00
32320;BME280;19080;51.750;5.888;2022-12-07T09:48:44;101553.13;;;8.97;100.00
32320;BME280;19080;51.750;5.888;2022-12-07T09:51:15;101526.34;;;8.88;100.00
32320;BME280;19080;51.750;5.888;2022-12-07T09:53:50;101548.88;;;10.18;100.00
32320;BME280;19080;51.750;5.888;2022-12-07T09:56:18;101543.75;;;9.94;100.00
32320;BME280;19080;51.750;5.888;2022-12-07T09:58:46;101501.75;;;9.19;100.00
32320;BME280;19080;51.750;5.888;2022-12-07T10:01:17;101548.31;;;8.86;100.00
32320;BME280;19080;51.750;5.888;2022-12-07T10:03:51;101468.28;;;8.15;100.00
32320;BME280;19080;51.750;5.888;2022-12-07T10:06:18;101542.91;;;8.56;100.00
32320;BME280;19080;51.750;5.888;2022-12-07T10:08:45;101547.63;;;8.91;100.00
32320;BME280;19080;51.750;5.888;2022-12-07T10:11:12;101446.13;;;8.91;100.00
32320;BME280;19080;51.750;5.888;2022-12-07T10:13:43;101528.09;;;9.14;100.00
32320;BME280;19080;51.750;5.888;2022-12-07T10:18:50;101512.66;;;8.74;100.00
32320;BME280;19080;51.750;5.888;2022-12-07T10:21:20;101507.78;;;8.34;100.00
32320;BME280;19080;51.750;5.888;2022-12-07T10:24:05;101524.72;;;8.15;100.00
32320;BME280;19080;51.750;5.888;2022-12-07T10:26:51;101425.72;;;7.58;100.00
32320;BME280;19080;51.750;5.888;2022-12-07T10:29:29;101431.16;;;7.63;100.00
32320;BME280;19080;51.750;5.888;2022-12-07T10:32:00;101513.34;;;8.18;100.00
32320;BME280;19080;51.750;5.888;2022-12-07T10:34:30;101507.72;;;8.09;100.00
32320;BME280;19080;51.750;5.888;2022-12-07T10:42:29;101506.47;;;8.47;100.00
32320;BME280;19080;51.750;5.888;2022-12-07T10:48:08;101495.63;;;8.39;100.00
32320;BME280;19080;51.750;5.888;2022-12-07T10:50:42;101500.72;;;8.60;100.00
32320;BME280;19080;51.750;5.888;2022-12-07T10:53:26;101474.34;;;9.19;100.00
32320;BME280;19080;51.750;5.888;2022-12-07T10:56:11;101493.63;;;9.71;100.00
32320;BME280;19080;51.750;5.888;2022-12-07T11:01:25;101480.41;;;9.43;100.00
32320;BME280;19080;51.750;5.888;2022-12-07T11:04:21;101474.72;;;9.31;100.00
32320;BME280;19080;51.750;5.888;2022-12-07T11:07:02;101467.72;;;9.33;100.00
32320;BME280;19080;51.750;5.888;2022-12-07T11:12:47;101474.50;;;9.23;100.00
32320;BME280;19080;51.750;5.888;2022-12-07T11:18:40;101466.59;;;8.69;100.00
32320;BME280;19080;51.750;5.888;2022-12-07T11:23:49;101446.28;;;8.68;100.00
32320;BME280;19080;51.750;5.888;2022-12-07T11:26:27;101459.13;;;8.83;100.00
32320;BME280;19080;51.750;5.888;2022-12-07T11:29:32;101451.72;;;8.73;100.00
32320;BME280;19080;51.750;5.888;2022-12-07T11:32:23;101454.31;;;8.98;100.00
32320;BME280;19080;51.750;5.888;2022-12-07T11:37:33;101452.31;;;8.91;100.00
32320;BME280;19080;51.750;5.888;2022-12-07T11:40:27;101366.19;;;8.45;100.00
32320;BME280;19080;51.750;5.888;2022-12-07T11:42:59;101443.09;;;9.07;100.00
32320;BME280;19080;51.750;5.888;2022-12-07T11:45:31;101441.84;;;9.24;100.00
32320;BME280;19080;51.750;5.888;2022-12-07T11:48:06;101416.19;;;9.22;100.00
32320;BME280;19080;51.750;5.888;2022-12-07T11:56:11;101441.31;;;9.36;100.00
32320;BME280;19080;51.750;5.888;2022-12-07T12:03:45;101407.59;;;9.00;100.00
32320;BME280;19080;51.750;5.888;2022-12-07T12:06:19;101421.63;;;8.98;100.00
32320;BME280;19080;51.750;5.888;2022-12-07T12:18:07;101426.97;;;8.71;100.00
32320;BME280;19080;51.750;5.888;2022-12-07T12:23:43;101427.34;;;8.55;100.00
32320;BME280;19080;51.750;5.888;2022-12-07T12:26:18;101424.53;;;8.50;100.00
32320;BME280;19080;51.750;5.888;2022-12-07T12:28:56;101414.22;;;8.58;100.00
32320;BME280;19080;51.750;5.888;2022-12-07T12:33:57;101320.31;;;8.18;100.00
32320;BME280;19080;51.750;5.888;2022-12-07T12:39:12;101414.72;;;8.46;100.00
32320;BME280;19080;51.750;5.888;2022-12-07T12:47:39;101399.44;;;8.12;100.00
32320;BME280;19080;51.750;5.888;2022-12-07T12:50:16;101382.88;;;8.18;100.00
32320;BME280;19080;51.750;5.888;2022-12-07T12:52:54;101392.81;;;8.25;100.00
32320;BME280;19080;51.750;5.888;2022-12-07T12:55:30;101356.41;;;7.91;100.00
32320;BME280;19080;51.750;5.888;2022-12-07T13:00:45;101301.75;;;7.90;100.00
32320;BME280;19080;51.750;5.888;2022-12-07T13:03:29;101386.69;;;8.81;100.00
32320;BME280;19080;51.750;5.888;2022-12-07T13:08:47;101368.31;;;9.78;100.00
32320;BME280;19080;51.750;5.888;2022-12-07T13:11:41;101376.88;;;9.68;100.00
32320;BME280;19080;51.750;5.888;2022-12-07T13:20:03;101287.75;;;9.39;100.00
32320;BME280;19080;51.750;5.888;2022-12-07T13:27:41;101283.06;;;8.97;100.00
32320;BME280;19080;51.750;5.888;2022-12-07T13:30:20;101338.75;;;9.00;100.00
32320;BME280;19080;51.750;5.888;2022-12-07T13:32:55;101342.72;;;8.86;100.00
32320;BME280;19080;51.750;5.888;2022-12-07T13:35:30;101360.59;;;8.93;100.00
32320;BME280;19080;51.750;5.888;2022-12-07T13:37:57;101340.44;;;8.40;100.00
32320;BME280;19080;51.750;5.888;2022-12-07T13:40:24;101315.56;;;8.08;100.00
32320;BME280;19080;51.750;5.888;2022-12-07T13:43:02;101250.31;;;7.53;100.00
32320;BME280;19080;51.750;5.888;2022-12-07T13:45:33;101327.97;;;7.83;100.00
32320;BME280;19080;51.750;5.888;2022-12-07T13:50:53;101318.72;;;7.71;100.00
32320;BME280;19080;51.750;5.888;2022-12-07T13:53:20;101312.75;;;7.76;100.00
32320;BME280;19080;51.750;5.888;2022-12-07T13:55:47;101311.38;;;7.88;100.00
32320;BME280;19080;51.750;5.888;2022-12-07T13:58:20;101313.22;;;7.65;100.00
32320;BME280;19080;51.750;5.888;2022-12-07T14:00:48;101321.69;;;7.55;100.00
32320;BME280;19080;51.750;5.888;2022-12-07T14:05:43;101233.84;;;7.35;100.00
32320;BME280;19080;51.750;5.888;2022-12-07T14:13:34;101321.03;;;7.12;100.00
32320;BME280;19080;51.750;5.888;2022-12-07T14:16:04;101312.97;;;6.84;100.00
32320;BME280;19080;51.750;5.888;2022-12-07T14:21:04;101223.66;;;6.02;100.00
32320;BME280;19080;51.750;5.888;2022-12-07T14:23:31;101283.53;;;6.27;100.00
32320;BME280;19080;51.750;5.888;2022-12-07T14:26:11;101313.00;;;6.39;100.00
32320;BME280;19080;51.750;5.888;2022-12-07T14:28:38;101218.88;;;5.92;100.00
32320;BME280;19080;51.750;5.888;2022-12-07T14:31:24;101262.78;;;6.14;100.00
32320;BME280;19080;51.750;5.888;2022-12-07T14:33:59;101255.72;;;6.13;100.00
32320;BME280;19080;51.750;5.888;2022-12-07T14:36:26;101300.00;;;6.44;100.00
32320;BME280;19080;51.750;5.888;2022-12-07T14:38:52;101299.28;;;6.48;100.00
32320;BME280;19080;51.750;5.888;2022-12-07T14:41:22;101197.03;;;5.95;100.00
32320;BME280;19080;51.750;5.888;2022-12-07T14:44:11;101173.63;;;5.81;100.00
32320;BME280;19080;51.750;5.888;2022-12-07T14:46:58;101275.38;;;6.43;100.00
32320;BME280;19080;51.750;5.888;2022-12-07T14:49:44;101285.31;;;6.50;100.00
32320;BME280;19080;51.750;5.888;2022-12-07T14:52:31;101292.38;;;6.51;100.00
32320;BME280;19080;51.750;5.888;2022-12-07T14:55:29;101288.66;;;6.46;100.00
32320;BME280;19080;51.750;5.888;2022-12-07T14:57:58;101272.50;;;6.37;100.00